createdAt,value
2019-04-23T00:26:36.592Z,10.97
2019-04-23T00:46:48.058Z,14.37
2019-04-23T00:57:00.747Z,27.33
2019-04-23T01:07:04.555Z,21.87
2019-04-23T01:17:17.425Z,14.37
2019-04-23T01:58:07.061Z,9.37
2019-04-23T02:08:06.559Z,11.37
2019-04-23T02:38:31.840Z,10.73
2019-04-23T02:48:38.174Z,10.37
2019-04-23T02:58:43.775Z,9.07
2019-04-23T03:08:46.641Z,9.70
2019-04-23T03:19:09.690Z,9.77
2019-04-23T03:39:37.407Z,10.80
2019-04-23T04:30:02.399Z,13.57
2019-04-23T04:40:12.341Z,7.53
2019-04-23T04:50:04.834Z,14.40
2019-04-23T05:00:34.720Z,10.50
2019-04-23T05:10:38.390Z,14.10
2019-04-23T05:30:38.177Z,11.13
2019-04-23T05:40:45.581Z,7.97
2019-04-23T06:01:11.443Z,12.37
2019-04-23T06:11:08.658Z,9.70
2019-04-23T06:21:10.187Z,9.03
2019-04-23T06:31:41.042Z,8.97
2019-04-23T06:41:29.051Z,6.75
2019-04-23T06:51:42.070Z,8.53
2019-04-23T07:01:51.577Z,10.70
2019-04-23T07:11:44.320Z,8.10
2019-04-23T07:21:59.279Z,6.83
2019-04-23T07:32:00.832Z,6.15
2019-04-23T07:42:24.697Z,6.50
2019-04-23T08:02:35.960Z,8.03
2019-04-23T08:12:42.498Z,4.72
2019-04-23T08:22:49.543Z,9.73
2019-04-23T08:32:58.737Z,7.40
2019-04-23T08:43:08.535Z,8.23
2019-04-23T08:53:23.422Z,10.28
2019-04-23T09:23:42.084Z,9.18
2019-04-23T09:34:00.558Z,10.65
2019-04-23T09:44:30.899Z,6.85
2019-04-23T09:54:17.994Z,7.15
2019-04-23T10:04:07.573Z,6.50
2019-04-23T10:14:03.162Z,9.53
2019-04-23T10:24:09.585Z,10.85
2019-04-23T10:34:14.865Z,11.28
2019-04-23T10:44:21.623Z,10.28
2019-04-23T10:54:52.337Z,6.62
2019-04-23T11:55:44.880Z,12.37
2019-04-23T12:06:15.428Z,12.78
2019-04-23T12:16:20.309Z,9.13
2019-04-23T12:26:33.823Z,6.25
2019-04-23T12:36:36.957Z,8.53
2019-04-23T12:56:56.825Z,16.32
2019-04-23T13:06:50.963Z,8.18
2019-04-23T13:17:12.615Z,11.08
2019-04-23T13:27:26.111Z,13.58
2019-04-23T13:37:29.812Z,10.20
2019-04-23T13:47:38.522Z,11.45
2019-04-23T13:57:57.703Z,12.23
2019-04-23T14:18:02.906Z,6.37
2019-04-23T14:27:56.610Z,11.08
2019-04-23T14:38:19.568Z,15.15
2019-04-23T14:48:10.461Z,9.23
2019-04-23T14:58:40.084Z,11.43
2019-04-23T15:08:24.277Z,8.70
2019-04-23T15:18:45.231Z,9.23
2019-04-23T15:28:17.776Z,5.55
2019-04-23T15:39:11.703Z,12.93
2019-04-23T15:59:19.125Z,11.88
2019-04-23T16:09:06.241Z,8.85
2019-04-23T16:19:24.097Z,9.80
2019-04-23T16:39:21.565Z,9.93
2019-04-23T17:00:02.506Z,8.45
2019-04-23T17:10:00.718Z,9.35
2019-04-23T17:20:00.710Z,11.53
2019-04-23T17:30:03.381Z,15.85
2019-04-23T17:50:38.019Z,14.40
2019-04-23T18:10:56.556Z,16.90
2019-04-23T18:21:14.214Z,22.25
2019-04-23T18:31:13.020Z,23.83
2019-04-23T18:41:25.268Z,22.50
2019-04-23T18:51:35.151Z,14.33
2019-04-23T19:02:02.535Z,17.50
2019-04-23T19:22:32.710Z,24.07
2019-04-23T19:32:06.661Z,17.70
2019-04-23T19:42:17.966Z,10.47
2019-04-23T19:52:52.717Z,13.97
2019-04-23T20:03:01.688Z,19.66
2019-04-23T20:13:01.623Z,17.03
2019-04-23T20:22:52.261Z,12.70
2019-04-23T20:43:23.683Z,16.80
2019-04-23T20:53:34.908Z,14.37
2019-04-23T21:03:46.577Z,11.23
2019-04-23T21:23:56.531Z,12.53
2019-04-23T21:34:12.850Z,11.17
2019-04-23T21:54:21.197Z,9.37
2019-04-23T22:14:26.679Z,8.20
2019-04-23T22:24:27.470Z,10.30
2019-04-23T22:34:41.327Z,7.80
2019-04-23T22:54:58.988Z,5.87
2019-04-23T23:05:10.333Z,7.70
2019-04-23T23:15:12.196Z,7.20
2019-04-23T23:25:23.855Z,7.23
2019-04-23T23:45:29.833Z,9.57
2019-04-23T23:55:37.937Z,6.93
